Time;durP1;ratioP1;P1;durP2;ratioP2;P2;SDS_P1;SDS_P2;PMS_P1;PMS_P2;Temp;Humidity;BMP_temperature;BMP_pressure;BME280_temperature;BME280_humidity;BME280_pressure;Samples;Min_cycle;Max_cycle;Signal;HPM_P1;HPM_P2
2022/02/01 06:03:29;;;;;;;38.55;16.67;;;;;;;;;;5068287;28;20755;-63
2022/02/01 06:05:55;;;;;;;45.50;20.27;;;;;;;;;;5068397;28;20391;-63
2022/02/01 06:08:21;;;;;;;44.10;19.70;;;;;;;;;;5068282;28;20021;-63
2022/02/01 06:10:47;;;;;;;39.58;19.35;;;;;;;;;;5068394;28;20488;-63
2022/02/01 06:13:13;;;;;;;33.65;17.25;;;;;;;;;;5068228;28;20507;-64
2022/02/01 06:15:40;;;;;;;48.78;21.92;;;;;;;;;;5067970;28;20032;-63
2022/02/01 06:18:06;;;;;;;41.80;18.60;;;;;;;;;;5067934;28;20029;-63
2022/02/01 06:20:32;;;;;;;33.33;15.43;;;;;;;;;;5068053;28;20033;-63
2022/02/01 06:22:58;;;;;;;36.78;14.00;;;;;;;;;;5068072;28;20044;-64
2022/02/01 06:25:47;;;;;;;50.63;21.85;;;;;;;;;;5066610;28;20048;-64
2022/02/01 06:28:13;;;;;;;57.30;26.20;;;;;;;;;;5066339;28;20056;-63
2022/02/01 06:30:39;;;;;;;40.05;18.58;;;;;;;;;;5066516;28;20016;-64
2022/02/01 06:33:05;;;;;;;44.88;19.75;;;;;;;;;;5066824;28;20519;-65
2022/02/01 06:35:31;;;;;;;38.08;15.95;;;;;;;;;;5066542;28;20470;-63
2022/02/01 06:37:57;;;;;;;30.92;14.68;;;;;;;;;;5066777;28;20384;-64
2022/02/01 06:40:23;;;;;;;40.25;16.30;;;;;;;;;;5067571;28;20788;-64
2022/02/01 06:42:49;;;;;;;33.67;14.00;;;;;;;;;;5067390;28;20507;-65
2022/02/01 06:45:16;;;;;;;31.80;14.18;;;;;;;;;;5066032;28;20020;-64
2022/02/01 06:47:42;;;;;;;35.58;13.80;;;;;;;;;;5056318;28;20029;-64
2022/02/01 06:50:08;;;;;;;30.90;13.35;;;;;;;;;;5055250;28;20017;-64
2022/02/01 06:52:34;;;;;;;34.80;13.20;;;;;;;;;;5058253;28;20070;-63
2022/02/01 06:55:02;;;;;;;31.60;13.52;;;;;;;;;;5067440;28;20440;-64
2022/02/01 06:57:28;;;;;;;27.02;12.40;;;;;;;;;;5067257;28;20028;-63
2022/02/01 06:59:54;;;;;;;35.25;15.88;;;;;;;;;;5066671;28;20028;-64
2022/02/01 07:02:20;;;;;;;39.03;15.13;;;;;;;;;;5066832;28;20052;-63
2022/02/01 07:04:46;;;;;;;30.52;15.60;;;;;;;;;;5067478;28;20091;-63
2022/02/01 07:07:13;;;;;;;36.17;16.27;;;;;;;;;;5066712;28;20032;-63
2022/02/01 07:09:39;;;;;;;36.40;15.10;;;;;;;;;;5067259;28;20025;-64
2022/02/01 07:12:06;;;;;;;39.28;16.90;;;;;;;;;;5066917;28;20044;-64
2022/02/01 07:14:32;;;;;;;42.20;17.25;;;;;;;;;;5055570;28;20021;-64
2022/02/01 07:16:58;;;;;;;39.75;17.85;;;;;;;;;;5053909;28;20048;-64
2022/02/01 07:19:24;;;;;;;44.97;19.08;;;;;;;;;;5053713;28;20122;-63
2022/02/01 07:21:50;;;;;;;41.55;18.85;;;;;;;;;;5053518;28;20365;-64
2022/02/01 07:24:18;;;;;;;46.15;19.48;;;;;;;;;;5053715;28;20078;-63
2022/02/01 07:26:55;;;;;;;47.72;19.60;;;;;;;;;;5051947;28;20370;-64
2022/02/01 07:29:21;;;;;;;41.05;19.05;;;;;;;;;;5049879;28;20096;-63
2022/02/01 07:31:47;;;;;;;38.95;18.15;;;;;;;;;;5043799;28;20037;-64
2022/02/01 07:34:14;;;;;;;42.28;18.65;;;;;;;;;;5041850;28;20480;-63
2022/02/01 07:36:41;;;;;;;38.35;18.70;;;;;;;;;;5044725;28;20604;-63
2022/02/01 07:39:07;;;;;;;38.88;19.33;;;;;;;;;;5042006;28;20048;-64
2022/02/01 07:41:33;;;;;;;39.58;18.70;;;;;;;;;;5045988;28;20155;-64
2022/02/01 07:43:59;;;;;;;38.83;20.15;;;;;;;;;;5034423;28;20076;-64
2022/02/01 07:46:26;;;;;;;44.20;21.50;;;;;;;;;;5033755;28;20024;-64
2022/02/01 07:48:52;;;;;;;44.83;21.48;;;;;;;;;;5033018;28;20026;-65
2022/02/01 07:51:18;;;;;;;46.88;21.48;;;;;;;;;;5032794;28;20053;-63
2022/02/01 07:53:44;;;;;;;43.38;22.80;;;;;;;;;;5033354;28;20030;-64
2022/02/01 07:56:11;;;;;;;42.85;22.80;;;;;;;;;;5033294;28;20017;-65
2022/02/01 07:58:37;;;;;;;49.97;23.67;;;;;;;;;;5032921;28;20036;-64
2022/02/01 08:01:03;;;;;;;51.00;26.38;;;;;;;;;;5032765;28;20038;-62
2022/02/01 08:03:29;;;;;;;52.20;26.80;;;;;;;;;;5032901;28;20554;-63
2022/02/01 08:05:55;;;;;;;58.53;28.23;;;;;;;;;;5032941;28;20040;-63
2022/02/01 08:08:21;;;;;;;51.50;27.00;;;;;;;;;;5032815;28;20069;-63
2022/02/01 08:10:50;;;;;;;59.38;30.55;;;;;;;;;;5032721;28;20040;-63
2022/02/01 08:18:31;;;;;;;48.25;26.52;;;;;;;;;;5038739;28;20455;-63
2022/02/01 08:21:02;;;;;;;49.33;25.13;;;;;;;;;;5040815;28;20022;-63
2022/02/01 08:23:28;;;;;;;47.15;24.27;;;;;;;;;;5040259;28;20051;-63
2022/02/01 08:25:54;;;;;;;55.13;26.33;;;;;;;;;;5041185;28;20017;-62
2022/02/01 08:28:21;;;;;;;57.55;29.50;;;;;;;;;;5047304;28;20033;-64
2022/02/01 08:30:54;;;;;;;49.60;23.90;;;;;;;;;;5052327;28;20025;-61
2022/02/01 08:33:22;;;;;;;48.33;24.48;;;;;;;;;;5052130;28;20064;-62
2022/02/01 08:35:48;;;;;;;42.40;22.75;;;;;;;;;;5051905;28;20021;-62
2022/02/01 08:38:14;;;;;;;46.47;24.05;;;;;;;;;;5052247;28;20036;-63
2022/02/01 08:40:41;;;;;;;52.25;24.23;;;;;;;;;;5052233;28;20112;-65
2022/02/01 08:43:07;;;;;;;48.42;22.73;;;;;;;;;;5051806;28;20094;-63
2022/02/01 08:45:33;;;;;;;46.50;23.77;;;;;;;;;;5052162;28;20060;-63
2022/02/01 08:47:59;;;;;;;51.10;25.08;;;;;;;;;;5052055;28;20082;-64
2022/02/01 08:50:30;;;;;;;51.50;25.90;;;;;;;;;;5051412;28;20040;-63
2022/02/01 08:53:03;;;;;;;51.83;25.83;;;;;;;;;;5051429;28;20013;-64
2022/02/01 08:55:49;;;;;;;;;;;;;;;;;;5052096;28;20945;-63
2022/02/01 08:58:15;;;;;;;49.92;25.20;;;;;;;;;;5051390;28;20466;-62
2022/02/01 09:00:41;;;;;;;51.47;24.63;;;;;;;;;;5051438;28;20104;-61
2022/02/01 09:03:07;;;;;;;50.17;25.60;;;;;;;;;;5049615;28;20064;-62
2022/02/01 09:05:33;;;;;;;53.85;26.05;;;;;;;;;;5040255;28;20029;-63
2022/02/01 09:08:01;;;;;;;47.60;25.15;;;;;;;;;;5051391;28;20025;-63
2022/02/01 09:10:28;;;;;;;51.90;25.02;;;;;;;;;;5051494;28;20021;-63
2022/02/01 09:12:54;;;;;;;50.80;24.88;;;;;;;;;;5044712;28;20018;-64
2022/02/01 09:15:20;;;;;;;43.00;23.13;;;;;;;;;;5047224;28;20037;-62
2022/02/01 09:17:47;;;;;;;51.60;24.60;;;;;;;;;;5050830;28;20034;-63
2022/02/01 09:20:13;;;;;;;47.05;23.10;;;;;;;;;;5051390;28;20025;-62
2022/02/01 09:22:39;;;;;;;54.25;25.90;;;;;;;;;;5051106;28;20519;-63
2022/02/01 09:25:06;;;;;;;42.95;23.27;;;;;;;;;;5051129;28;20039;-62
2022/02/01 09:27:35;;;;;;;48.17;24.83;;;;;;;;;;5051782;28;20396;-63
2022/02/01 09:30:01;;;;;;;51.10;24.48;;;;;;;;;;5050017;28;20029;-64
2022/02/01 09:32:27;;;;;;;49.60;24.55;;;;;;;;;;5049635;28;20033;-63
2022/02/01 09:34:54;;;;;;;54.42;25.95;;;;;;;;;;5042467;28;20029;-64
2022/02/01 09:37:21;;;;;;;58.28;28.27;;;;;;;;;;5030622;28;20556;-63
2022/02/01 09:39:47;;;;;;;55.60;25.70;;;;;;;;;;5038443;28;20423;-63
2022/02/01 09:42:13;;;;;;;45.17;26.05;;;;;;;;;;5036911;28;20091;-61
2022/02/01 09:44:39;;;;;;;46.97;24.10;;;;;;;;;;5030222;28;20033;-63
2022/02/01 09:47:05;;;;;;;46.58;23.58;;;;;;;;;;5030740;28;20646;-63
2022/02/01 09:49:31;;;;;;;50.17;24.38;;;;;;;;;;5031136;28;20052;-63
2022/02/01 09:51:58;;;;;;;45.20;23.35;;;;;;;;;;5030822;28;20389;-63
2022/02/01 09:54:26;;;;;;;47.00;23.75;;;;;;;;;;5036958;28;20029;-62
2022/02/01 09:56:53;;;;;;;43.03;23.30;;;;;;;;;;5038480;28;20144;-63
2022/02/01 09:59:30;;;;;;;43.92;23.20;;;;;;;;;;5038686;28;20029;-63
2022/02/01 10:01:57;;;;;;;48.55;24.08;;;;;;;;;;5036311;28;20069;-62
2022/02/01 10:04:27;;;;;;;39.70;22.50;;;;;;;;;;5038109;28;20079;-63
2022/02/01 10:06:55;;;;;;;46.17;23.40;;;;;;;;;;5038621;28;20500;-61
2022/02/01 10:09:21;;;;;;;49.03;23.85;;;;;;;;;;5038284;28;20130;-63
2022/02/01 10:11:48;;;;;;;46.95;23.75;;;;;;;;;;5040261;28;20496;-65
2022/02/01 10:14:24;;;;;;;52.42;24.58;;;;;;;;;;5038617;28;20021;-63
2022/02/01 10:16:56;;;;;;;49.17;25.60;;;;;;;;;;5038207;28;20025;-62
2022/02/01 10:19:22;;;;;;;47.72;23.67;;;;;;;;;;5038148;28;20028;-63
2022/02/01 10:21:58;;;;;;;42.78;22.55;;;;;;;;;;5039814;28;20029;-63
2022/02/01 10:24:28;;;;;;;40.00;21.35;;;;;;;;;;5040036;28;20108;-63
2022/02/01 10:27:04;;;;;;;41.60;22.10;;;;;;;;;;5038541;28;20423;-62
2022/02/01 10:29:30;;;;;;;47.85;25.25;;;;;;;;;;5038113;28;20025;-63
2022/02/01 10:31:59;;;;;;;51.78;28.27;;;;;;;;;;5038644;28;20094;-63
2022/02/01 10:34:41;;;;;;;45.47;26.40;;;;;;;;;;5039704;28;20083;-62
2022/02/01 10:37:24;;;;;;;46.17;24.35;;;;;;;;;;5038953;28;20021;-63
2022/02/01 10:39:55;;;;;;;47.15;26.17;;;;;;;;;;5036308;28;20531;-63
2022/02/01 10:42:21;;;;;;;44.65;23.67;;;;;;;;;;5039336;28;20033;-63
2022/02/01 10:44:55;;;;;;;42.72;23.38;;;;;;;;;;5037443;28;20025;-63
2022/02/01 10:47:35;;;;;;;42.80;23.35;;;;;;;;;;5038873;28;20471;-62
2022/02/01 10:50:03;;;;;;;39.30;22.83;;;;;;;;;;5042991;28;20025;-62
2022/02/01 10:52:32;;;;;;;41.92;22.17;;;;;;;;;;5041254;28;20036;-62
2022/02/01 10:54:58;;;;;;;40.60;22.75;;;;;;;;;;5042533;28;20104;-63
2022/02/01 10:57:24;;;;;;;41.90;24.48;;;;;;;;;;5049099;28;20049;-63
2022/02/01 10:59:50;;;;;;;43.55;23.60;;;;;;;;;;5041406;28;20465;-62
2022/02/01 11:02:17;;;;;;;42.10;23.48;;;;;;;;;;5042199;28;20060;-63
2022/02/01 11:04:43;;;;;;;41.45;22.65;;;;;;;;;;5043138;28;20069;-63
2022/02/01 11:07:09;;;;;;;42.40;23.77;;;;;;;;;;5041406;28;20033;-63
2022/02/01 11:09:36;;;;;;;47.35;24.50;;;;;;;;;;5042859;28;20028;-63
2022/02/01 11:12:06;;;;;;;49.35;25.95;;;;;;;;;;5042887;28;20045;-63
2022/02/01 11:14:37;;;;;;;43.83;24.00;;;;;;;;;;5041303;28;20032;-63
2022/02/01 11:17:04;;;;;;;42.17;22.75;;;;;;;;;;5042114;28;20440;-62
2022/02/01 11:19:32;;;;;;;44.58;23.30;;;;;;;;;;5043331;28;20013;-63
2022/02/01 11:21:58;;;;;;;42.13;24.55;;;;;;;;;;5041324;28;20109;-63
2022/02/01 11:24:34;;;;;;;42.38;24.08;;;;;;;;;;5041233;28;20104;-63
2022/02/01 11:27:27;;;;;;;40.60;23.17;;;;;;;;;;5042019;28;20021;-63
2022/02/01 11:32:35;;;;;;;42.13;22.98;;;;;;;;;;5041509;28;20040;-63
2022/02/01 11:35:05;;;;;;;47.30;24.60;;;;;;;;;;5041988;28;20022;-63
2022/02/01 11:37:31;;;;;;;43.75;24.75;;;;;;;;;;5040782;28;20013;-62
2022/02/01 11:39:58;;;;;;;43.15;24.25;;;;;;;;;;5042416;28;20100;-62
2022/02/01 11:42:30;;;;;;;44.15;25.48;;;;;;;;;;5040982;28;20456;-63
2022/02/01 11:45:04;;;;;;;45.47;25.50;;;;;;;;;;5041891;28;20049;-63
2022/02/01 11:47:35;;;;;;;46.35;24.45;;;;;;;;;;5040944;28;20528;-63
2022/02/01 11:50:10;;;;;;;43.80;24.08;;;;;;;;;;5041661;28;20013;-63
2022/02/01 11:52:43;;;;;;;41.45;23.58;;;;;;;;;;5040963;28;20508;-63
2022/02/01 11:55:10;;;;;;;45.55;24.27;;;;;;;;;;5040684;28;20101;-63
2022/02/01 11:57:41;;;;;;;45.90;23.95;;;;;;;;;;5041899;28;20105;-61
2022/02/01 12:00:13;;;;;;;47.42;25.27;;;;;;;;;;5042423;28;20529;-64
2022/02/01 12:02:41;;;;;;;41.10;23.88;;;;;;;;;;5040872;28;20081;-63
2022/02/01 12:05:07;;;;;;;46.50;24.55;;;;;;;;;;5040584;28;20037;-62
2022/02/01 12:07:43;;;;;;;41.38;23.33;;;;;;;;;;5042281;28;20025;-63
2022/02/01 12:10:13;;;;;;;42.47;23.20;;;;;;;;;;5042544;28;20027;-63
2022/02/01 12:12:39;;;;;;;45.22;24.83;;;;;;;;;;5041014;28;20029;-62
2022/02/01 12:15:05;;;;;;;49.03;26.30;;;;;;;;;;5039907;28;20021;-62
2022/02/01 12:17:35;;;;;;;40.22;22.58;;;;;;;;;;5041609;28;20041;-62
2022/02/01 12:20:04;;;;;;;41.33;23.10;;;;;;;;;;5041291;28;20025;-62
2022/02/01 12:22:39;;;;;;;36.72;21.95;;;;;;;;;;5039847;28;20041;-62
2022/02/01 12:25:07;;;;;;;41.88;22.40;;;;;;;;;;5038220;28;20400;-62
2022/02/01 12:27:34;;;;;;;38.33;22.88;;;;;;;;;;5041835;28;20025;-62
2022/02/01 12:30:01;;;;;;;37.08;22.63;;;;;;;;;;5041038;28;20057;-62
2022/02/01 12:32:27;;;;;;;42.58;24.35;;;;;;;;;;5040037;28;20114;-62
2022/02/01 12:34:53;;;;;;;42.78;24.00;;;;;;;;;;5042309;28;20028;-61
2022/02/01 12:37:23;;;;;;;42.28;23.05;;;;;;;;;;5040895;28;20028;-63
2022/02/01 12:40:07;;;;;;;42.47;23.60;;;;;;;;;;5039874;28;20393;-63
2022/02/01 12:42:43;;;;;;;37.67;21.98;;;;;;;;;;5039365;28;20272;-61
2022/02/01 12:48:00;;;;;;;43.63;25.17;;;;;;;;;;5039363;28;20176;-62
2022/02/01 12:50:26;;;;;;;40.53;23.73;;;;;;;;;;5039860;28;20100;-61
2022/02/01 12:52:58;;;;;;;38.15;22.88;;;;;;;;;;5041311;28;20096;-61
2022/02/01 12:55:28;;;;;;;44.65;25.17;;;;;;;;;;5040565;28;20025;-63
2022/02/01 12:57:54;;;;;;;40.55;22.85;;;;;;;;;;5039746;28;20017;-62
2022/02/01 13:00:22;;;;;;;34.92;19.48;;;;;;;;;;5040409;28;20028;-61
2022/02/01 13:02:55;;;;;;;33.90;18.25;;;;;;;;;;5041115;28;20061;-60
2022/02/01 13:05:21;;;;;;;34.30;18.60;;;;;;;;;;5040216;28;20029;-62
2022/02/01 13:21:01;;;;;;;39.58;19.08;;;;;;;;;;5039896;28;20103;-62
2022/02/01 13:23:43;;;;;;;35.00;18.85;;;;;;;;;;5039660;28;20488;-61
2022/02/01 13:26:12;;;;;;;37.78;18.95;;;;;;;;;;5040826;28;20125;-61
2022/02/01 13:28:41;;;;;;;42.50;22.55;;;;;;;;;;5040802;28;20029;-61
2022/02/01 13:31:18;;;;;;;41.65;20.80;;;;;;;;;;5040526;28;20021;-60
2022/02/01 13:33:49;;;;;;;33.10;18.25;;;;;;;;;;5037932;28;20021;-61
2022/02/01 13:36:16;;;;;;;27.98;14.55;;;;;;;;;;5040749;28;20025;-61
2022/02/01 13:38:52;;;;;;;39.22;20.77;;;;;;;;;;5039980;28;20064;-60
2022/02/01 13:41:18;;;;;;;33.47;16.80;;;;;;;;;;5038603;28;20021;-61
2022/02/01 13:43:49;;;;;;;37.35;18.92;;;;;;;;;;5038979;28;20511;-61
2022/02/01 13:46:21;;;;;;;32.50;18.15;;;;;;;;;;5035987;28;20113;-62
2022/02/01 13:48:59;;;;;;;35.80;18.48;;;;;;;;;;5031051;28;20104;-63
2022/02/01 13:51:26;;;;;;;34.38;17.10;;;;;;;;;;5031551;28;20110;-63
2022/02/01 13:53:58;;;;;;;34.03;15.93;;;;;;;;;;5034127;28;20025;-63
2022/02/01 13:56:31;;;;;;;28.63;15.82;;;;;;;;;;5050933;28;20028;-61
2022/02/01 13:59:09;;;;;;;32.55;17.27;;;;;;;;;;5044559;28;20029;-62
2022/02/01 14:01:35;;;;;;;37.55;17.15;;;;;;;;;;5043253;28;20057;-61
2022/02/01 14:04:05;;;;;;;26.63;14.70;;;;;;;;;;5050489;28;20079;-61
2022/02/01 14:25:37;;;;;;;37.88;18.65;;;;;;;;;;5033602;28;20172;-62
2022/02/01 14:35:44;;;;;;;42.63;21.30;;;;;;;;;;5035792;28;20044;-62
2022/02/01 14:38:38;;;;;;;47.25;20.92;;;;;;;;;;5034431;28;20536;-62
2022/02/01 14:46:11;;;;;;;46.97;21.65;;;;;;;;;;5034653;28;20083;-65
2022/02/01 14:48:37;;;;;;;40.55;21.15;;;;;;;;;;5034459;28;20100;-63
2022/02/01 14:51:06;;;;;;;36.38;16.88;;;;;;;;;;5034147;28;20040;-63
2022/02/01 14:53:33;;;;;;;25.55;13.82;;;;;;;;;;5044826;28;20131;-64
2022/02/01 14:56:39;;;;;;;39.50;18.83;;;;;;;;;;5034388;28;20121;-63
2022/02/01 15:15:01;;;;;;;44.38;20.25;;;;;;;;;;5033884;28;20084;-61
2022/02/01 15:17:27;;;;;;;46.58;22.73;;;;;;;;;;5033915;28;20496;-62
2022/02/01 15:19:53;;;;;;;49.60;22.20;;;;;;;;;;5033468;28;20040;-63
2022/02/01 15:22:19;;;;;;;32.40;17.95;;;;;;;;;;5033539;28;20496;-62
2022/02/01 15:24:46;;;;;;;42.47;20.65;;;;;;;;;;5033369;28;20064;-62
2022/02/01 15:27:12;;;;;;;38.72;20.73;;;;;;;;;;5033729;28;20033;-61
2022/02/01 15:29:38;;;;;;;28.02;17.08;;;;;;;;;;5033215;28;20570;-61
2022/02/01 15:32:04;;;;;;;35.03;18.42;;;;;;;;;;5033719;28;20033;-62
2022/02/01 15:34:33;;;;;;;38.03;18.58;;;;;;;;;;5033389;28;20087;-62
2022/02/01 15:37:03;;;;;;;25.92;13.55;;;;;;;;;;5032420;28;20037;-63
2022/02/01 15:54:23;;;;;;;32.63;16.55;;;;;;;;;;5033560;28;20388;-63
2022/02/01 15:56:46;;;;;;;31.73;17.50;;;;;;;;;;5033483;28;20518;-62
2022/02/01 15:59:10;;;;;;;24.80;15.07;;;;;;;;;;5034475;28;20060;-64
2022/02/01 16:01:43;;;;;;;49.03;26.95;;;;;;;;;;5034388;28;20038;-62
2022/02/01 16:04:10;;;;;;;38.30;22.05;;;;;;;;;;5032977;28;20045;-62
2022/02/01 16:06:39;;;;;;;31.45;17.38;;;;;;;;;;5033546;28;20100;-63
2022/02/01 16:09:13;;;;;;;33.78;19.98;;;;;;;;;;5042130;28;20150;-62
2022/02/01 16:11:42;;;;;;;30.48;17.17;;;;;;;;;;5041560;28;20036;-62
2022/02/01 16:14:08;;;;;;;30.65;17.80;;;;;;;;;;5030662;28;20029;-61
2022/02/01 16:16:34;;;;;;;27.20;16.55;;;;;;;;;;5032628;28;20064;-61
2022/02/01 16:19:01;;;;;;;29.83;15.48;;;;;;;;;;5032699;28;20029;-61
2022/02/01 16:21:28;;;;;;;27.63;15.35;;;;;;;;;;5032595;28;20044;-61
2022/02/01 16:23:55;;;;;;;32.10;17.80;;;;;;;;;;5031805;28;20117;-62
2022/02/01 16:26:21;;;;;;;27.58;16.83;;;;;;;;;;5032553;28;20033;-62
2022/02/01 16:28:47;;;;;;;28.27;16.90;;;;;;;;;;5032607;28;20029;-62
2022/02/01 16:31:15;;;;;;;32.75;17.30;;;;;;;;;;5031694;28;20037;-62
2022/02/01 16:33:41;;;;;;;28.65;15.98;;;;;;;;;;5032254;28;20021;-62
2022/02/01 16:36:07;;;;;;;26.83;15.70;;;;;;;;;;5030669;28;20389;-62
2022/02/01 16:38:33;;;;;;;35.15;18.63;;;;;;;;;;5032211;28;20469;-62
2022/02/01 16:41:00;;;;;;;36.20;19.27;;;;;;;;;;5032104;28;20366;-62
2022/02/01 16:43:29;;;;;;;29.80;15.43;;;;;;;;;;5030786;28;20068;-62
2022/02/01 16:45:55;;;;;;;30.63;15.70;;;;;;;;;;5033695;28;20496;-61
2022/02/01 16:48:21;;;;;;;30.52;14.73;;;;;;;;;;5052175;28;20041;-62
2022/02/01 16:50:48;;;;;;;41.45;21.88;;;;;;;;;;5043870;28;20068;-62
2022/02/01 16:53:18;;;;;;;52.42;25.10;;;;;;;;;;5033172;28;20041;-62
2022/02/01 17:00:51;;;;;;;32.20;15.77;;;;;;;;;;5031604;28;20079;-61
2022/02/01 17:03:18;;;;;;;31.98;17.13;;;;;;;;;;5031495;28;20053;-62
2022/02/01 17:05:46;;;;;;;30.73;16.33;;;;;;;;;;5031932;28;20662;-62
2022/02/01 17:08:12;;;;;;;38.47;16.45;;;;;;;;;;5031516;28;20029;-61
2022/02/01 17:10:41;;;;;;;32.58;16.95;;;;;;;;;;5031211;28;20377;-62
2022/02/01 17:13:14;;;;;;;33.38;16.88;;;;;;;;;;5031592;28;20211;-60
2022/02/01 17:23:22;;;;;;;32.63;17.13;;;;;;;;;;5031491;28;20047;-63
2022/02/01 17:25:48;;;;;;;34.45;18.30;;;;;;;;;;5031779;28;20523;-63
2022/02/01 17:28:14;;;;;;;35.75;18.30;;;;;;;;;;5031449;28;20037;-63
2022/02/01 17:30:40;;;;;;;33.72;16.75;;;;;;;;;;5031673;28;20030;-63
2022/02/01 17:33:06;;;;;;;34.38;17.33;;;;;;;;;;5030857;28;20037;-63
2022/02/01 17:35:32;;;;;;;38.45;18.23;;;;;;;;;;5031583;28;20022;-62
2022/02/01 17:37:58;;;;;;;37.72;17.70;;;;;;;;;;5031408;28;20105;-63
2022/02/01 17:40:25;;;;;;;37.97;19.52;;;;;;;;;;5031297;28;20072;-63
2022/02/01 17:42:52;;;;;;;40.90;20.65;;;;;;;;;;5031034;28;20549;-63
2022/02/01 17:45:19;;;;;;;42.42;21.55;;;;;;;;;;5031246;28;20028;-63
2022/02/01 17:47:49;;;;;;;43.92;21.70;;;;;;;;;;5031431;28;20033;-63
2022/02/01 17:50:30;;;;;;;49.33;24.25;;;;;;;;;;5031444;28;20018;-63
2022/02/01 17:55:23;;;;;;;55.17;26.48;;;;;;;;;;5031086;28;20060;-63
2022/02/01 17:57:49;;;;;;;51.85;24.08;;;;;;;;;;5030680;28;20105;-63
2022/02/01 18:00:15;;;;;;;52.22;25.15;;;;;;;;;;5031139;28;20045;-63
2022/02/01 18:02:42;;;;;;;47.53;24.40;;;;;;;;;;5030904;28;20497;-63
2022/02/01 18:05:11;;;;;;;49.30;25.83;;;;;;;;;;5031343;28;20117;-63
2022/02/01 18:07:40;;;;;;;53.17;25.83;;;;;;;;;;5030958;28;20018;-63
2022/02/01 18:10:06;;;;;;;47.95;24.52;;;;;;;;;;5030799;28;20048;-62
2022/02/01 18:15:17;;;;;;;47.08;22.52;;;;;;;;;;5031009;28;20060;-63
2022/02/01 18:17:43;;;;;;;45.38;23.30;;;;;;;;;;5031062;28;20401;-63
2022/02/01 18:20:10;;;;;;;44.85;23.27;;;;;;;;;;5030766;28;20032;-62
2022/02/01 18:22:36;;;;;;;46.00;22.08;;;;;;;;;;5030815;28;20034;-63
2022/02/01 18:25:03;;;;;;;42.85;22.45;;;;;;;;;;5030535;28;20481;-63
2022/02/01 18:27:31;;;;;;;44.30;22.08;;;;;;;;;;5030260;28;20025;-63
2022/02/01 18:30:00;;;;;;;43.92;22.13;;;;;;;;;;5030734;28;20025;-63
2022/02/01 18:32:28;;;;;;;47.08;22.50;;;;;;;;;;5030632;28;20060;-63
2022/02/01 18:34:54;;;;;;;47.47;24.80;;;;;;;;;;5030632;28;20021;-63
2022/02/01 18:37:22;;;;;;;43.95;22.13;;;;;;;;;;5030636;28;20436;-62
2022/02/01 18:39:59;;;;;;;41.28;22.30;;;;;;;;;;5030567;28;20168;-62
2022/02/01 18:42:45;;;;;;;43.83;22.05;;;;;;;;;;5030293;28;20022;-63
2022/02/01 18:45:13;;;;;;;48.67;25.70;;;;;;;;;;5030505;28;20373;-63
2022/02/01 18:47:40;;;;;;;40.38;22.38;;;;;;;;;;5030547;28;20029;-63
2022/02/01 18:58:06;;;;;;;38.85;22.00;;;;;;;;;;5030438;28;20037;-63
2022/02/01 19:05:47;;;;;;;41.53;22.05;;;;;;;;;;5030428;28;20481;-63
2022/02/01 19:13:32;;;;;;;49.20;25.13;;;;;;;;;;5033522;28;20040;-62
2022/02/01 19:15:59;;;;;;;46.38;26.40;;;;;;;;;;5033899;28;20029;-63
2022/02/01 19:18:27;;;;;;;48.75;25.98;;;;;;;;;;5033838;28;20523;-63
2022/02/01 19:20:54;;;;;;;48.08;26.27;;;;;;;;;;5034008;28;20030;-63
2022/02/01 19:23:21;;;;;;;47.30;26.73;;;;;;;;;;5032380;28;20045;-63
2022/02/01 19:25:49;;;;;;;50.78;26.55;;;;;;;;;;5033881;28;20396;-63
2022/02/01 19:28:17;;;;;;;47.08;26.20;;;;;;;;;;5033813;28;20049;-63
2022/02/01 19:30:47;;;;;;;49.55;25.85;;;;;;;;;;5033426;28;20022;-63
2022/02/01 19:33:17;;;;;;;46.10;26.42;;;;;;;;;;5033253;28;20131;-62
2022/02/01 19:35:47;;;;;;;45.88;26.08;;;;;;;;;;5033469;28;20025;-63
2022/02/01 19:38:17;;;;;;;51.10;26.70;;;;;;;;;;5033062;28;20034;-63
2022/02/01 19:40:45;;;;;;;55.63;30.45;;;;;;;;;;5033552;28;20373;-63
2022/02/01 19:43:11;;;;;;;55.97;30.75;;;;;;;;;;5032666;28;20036;-63
2022/02/01 19:45:42;;;;;;;58.17;31.50;;;;;;;;;;5032897;28;20021;-63
2022/02/01 19:48:11;;;;;;;74.72;35.88;;;;;;;;;;5033565;28;20124;-63
2022/02/01 19:50:37;;;;;;;64.90;33.72;;;;;;;;;;5033292;28;20096;-62
2022/02/01 19:53:08;;;;;;;69.63;33.45;;;;;;;;;;5033018;28;20039;-63
2022/02/01 19:55:34;;;;;;;67.97;33.67;;;;;;;;;;5033250;28;20037;-63
2022/02/01 19:58:01;;;;;;;70.00;33.13;;;;;;;;;;5032931;28;20112;-63
2022/02/01 20:00:28;;;;;;;77.43;36.08;;;;;;;;;;5032883;28;20104;-63
2022/02/01 20:02:54;;;;;;;76.43;36.58;;;;;;;;;;5032704;28;20517;-62
2022/02/01 20:05:20;;;;;;;73.45;33.45;;;;;;;;;;5032801;28;20040;-63
2022/02/01 20:07:48;;;;;;;74.68;35.13;;;;;;;;;;5032702;28;20026;-63
2022/02/01 20:10:16;;;;;;;84.63;38.50;;;;;;;;;;5033299;28;20084;-63
2022/02/01 20:12:43;;;;;;;84.85;38.90;;;;;;;;;;5032209;28;20029;-63
2022/02/01 20:15:16;;;;;;;88.32;41.35;;;;;;;;;;5031803;28;20049;-63
2022/02/01 20:17:46;;;;;;;76.63;37.75;;;;;;;;;;5032146;28;20033;-63
2022/02/01 20:20:13;;;;;;;74.18;35.20;;;;;;;;;;5032670;28;20081;-63
2022/02/01 20:22:39;;;;;;;72.35;34.65;;;;;;;;;;5032365;28;20120;-62
2022/02/01 20:25:06;;;;;;;61.80;32.05;;;;;;;;;;5032363;28;20041;-63
2022/02/01 20:27:32;;;;;;;62.90;31.85;;;;;;;;;;5032031;28;20038;-63
2022/02/01 20:29:59;;;;;;;60.25;32.03;;;;;;;;;;5032102;28;20431;-63
2022/02/01 20:32:27;;;;;;;59.55;31.25;;;;;;;;;;5032255;28;20034;-62
2022/02/01 20:34:53;;;;;;;63.90;31.38;;;;;;;;;;5032593;28;20022;-63
2022/02/01 20:37:21;;;;;;;54.15;31.08;;;;;;;;;;5032303;28;20027;-63
2022/02/01 20:39:50;;;;;;;56.63;30.25;;;;;;;;;;5037344;28;20501;-63
2022/02/01 20:42:18;;;;;;;55.33;30.05;;;;;;;;;;5041170;28;20464;-61
2022/02/01 20:44:44;;;;;;;55.85;29.48;;;;;;;;;;5049269;28;20024;-61
2022/02/01 20:47:11;;;;;;;57.15;30.60;;;;;;;;;;5047852;28;20025;-63
2022/02/01 20:49:37;;;;;;;53.65;29.98;;;;;;;;;;5034466;28;20167;-64
2022/02/01 20:52:05;;;;;;;55.90;29.60;;;;;;;;;;5046982;28;20025;-63
2022/02/01 20:54:31;;;;;;;55.63;30.40;;;;;;;;;;5048686;28;20025;-62
2022/02/01 20:56:58;;;;;;;52.22;28.90;;;;;;;;;;5048008;28;20031;-63
2022/02/01 20:59:24;;;;;;;52.25;29.02;;;;;;;;;;5043870;28;20036;-63
2022/02/01 21:01:50;;;;;;;54.33;29.77;;;;;;;;;;5048308;28;20481;-64
2022/02/01 21:04:17;;;;;;;50.13;28.90;;;;;;;;;;5052612;28;21524;-62
2022/02/01 21:06:43;;;;;;;57.22;30.45;;;;;;;;;;5048099;28;20027;-63
2022/02/01 21:09:10;;;;;;;57.83;31.17;;;;;;;;;;5049260;28;20047;-63
2022/02/01 21:11:36;;;;;;;57.72;30.02;;;;;;;;;;5051727;28;20024;-64
2022/02/01 21:14:03;;;;;;;52.42;29.55;;;;;;;;;;5051532;28;20029;-63
2022/02/01 21:16:29;;;;;;;58.42;30.85;;;;;;;;;;5051804;28;20122;-63
2022/02/01 21:18:55;;;;;;;59.22;31.70;;;;;;;;;;5051494;28;20025;-63
2022/02/01 21:21:21;;;;;;;50.90;28.45;;;;;;;;;;5051475;28;20381;-63
2022/02/01 21:23:47;;;;;;;57.75;30.10;;;;;;;;;;5051161;28;20469;-63
2022/02/01 21:26:13;;;;;;;67.88;37.33;;;;;;;;;;5051315;28;20473;-64
2022/02/01 21:28:39;;;;;;;67.45;33.28;;;;;;;;;;5051266;28;20048;-63
2022/02/01 21:31:05;;;;;;;55.88;30.33;;;;;;;;;;5051347;28;20024;-64
2022/02/01 21:33:32;;;;;;;55.08;29.30;;;;;;;;;;5050931;28;20033;-64
2022/02/01 21:35:58;;;;;;;56.05;30.60;;;;;;;;;;5051410;28;20418;-63
2022/02/01 21:38:24;;;;;;;55.22;29.75;;;;;;;;;;5051213;28;20028;-63
2022/02/01 21:40:50;;;;;;;56.35;29.38;;;;;;;;;;5051287;28;20388;-63
2022/02/01 21:43:20;;;;;;;56.08;29.30;;;;;;;;;;5050661;28;20053;-63
2022/02/01 21:45:49;;;;;;;53.45;28.73;;;;;;;;;;5051045;28;20423;-63
2022/02/01 21:48:15;;;;;;;53.92;28.10;;;;;;;;;;5051170;28;20578;-63
2022/02/01 21:50:42;;;;;;;57.58;31.75;;;;;;;;;;5049680;28;20514;-64
2022/02/01 21:53:08;;;;;;;51.80;30.25;;;;;;;;;;5045380;28;20104;-63
2022/02/01 21:55:34;;;;;;;54.72;29.17;;;;;;;;;;5040364;28;20026;-63
2022/02/01 21:58:00;;;;;;;49.78;27.00;;;;;;;;;;5038533;28;20030;-63
2022/02/01 22:00:26;;;;;;;48.90;26.88;;;;;;;;;;5039743;28;20032;-63
2022/02/01 22:02:54;;;;;;;50.35;26.83;;;;;;;;;;5039835;28;20049;-63
2022/02/01 22:05:20;;;;;;;53.45;27.95;;;;;;;;;;5038520;28;20489;-63
2022/02/01 22:07:46;;;;;;;56.80;29.73;;;;;;;;;;5039734;28;20029;-63
2022/02/01 22:10:13;;;;;;;59.40;30.60;;;;;;;;;;5040350;28;20025;-63
2022/02/01 22:12:39;;;;;;;55.65;30.33;;;;;;;;;;5038451;28;20113;-63
2022/02/01 22:15:07;;;;;;;59.47;30.45;;;;;;;;;;5039785;28;20104;-63
2022/02/01 22:17:33;;;;;;;52.28;30.13;;;;;;;;;;5040284;28;20485;-63
2022/02/01 22:19:59;;;;;;;53.55;30.33;;;;;;;;;;5033375;28;20021;-63
2022/02/01 22:22:25;;;;;;;57.10;30.40;;;;;;;;;;5030525;28;20520;-63
2022/02/01 22:24:53;;;;;;;51.17;30.13;;;;;;;;;;5030766;28;20064;-63
2022/02/01 22:27:20;;;;;;;63.35;32.40;;;;;;;;;;5030688;28;20026;-63
2022/02/01 22:29:46;;;;;;;56.92;30.15;;;;;;;;;;5031160;28;20104;-63